sensor_id;sensor_type;location;lat;lon;timestamp;P1;durP1;ratioP1;P2;durP2;ratioP2
52468;SDS011;38381;53.688;10.776;2023-07-02T00:04:08;6.63;;;3.78;;
52468;SDS011;38381;53.688;10.776;2023-07-02T00:09:09;4.53;;;3.10;;
52468;SDS011;38381;53.688;10.776;2023-07-02T00:14:10;4.70;;;3.38;;
52468;SDS011;38381;53.688;10.776;2023-07-02T00:19:13;7.50;;;3.50;;
52468;SDS011;38381;53.688;10.776;2023-07-02T00:24:15;10.55;;;4.22;;
52468;SDS011;38381;53.688;10.776;2023-07-02T00:29:15;6.53;;;3.33;;
52468;SDS011;38381;53.688;10.776;2023-07-02T00:34:17;6.25;;;2.97;;
52468;SDS011;38381;53.688;10.776;2023-07-02T00:39:18;5.53;;;3.55;;
52468;SDS011;38381;53.688;10.776;2023-07-02T00:44:18;5.87;;;3.07;;
52468;SDS011;38381;53.688;10.776;2023-07-02T00:49:19;5.25;;;3.78;;
52468;SDS011;38381;53.688;10.776;2023-07-02T00:54:20;8.95;;;3.58;;
52468;SDS011;38381;53.688;10.776;2023-07-02T00:59:20;4.13;;;3.30;;
52468;SDS011;38381;53.688;10.776;2023-07-02T01:04:21;8.70;;;3.97;;
52468;SDS011;38381;53.688;10.776;2023-07-02T01:09:27;5.43;;;4.05;;
52468;SDS011;38381;53.688;10.776;2023-07-02T01:14:41;7.47;;;3.83;;
52468;SDS011;38381;53.688;10.776;2023-07-02T01:19:45;4.57;;;3.15;;
52468;SDS011;38381;53.688;10.776;2023-07-02T01:24:53;9.32;;;3.85;;
52468;SDS011;38381;53.688;10.776;2023-07-02T01:29:55;6.33;;;4.07;;
52468;SDS011;38381;53.688;10.776;2023-07-02T01:34:55;6.13;;;3.95;;
52468;SDS011;38381;53.688;10.776;2023-07-02T01:39:56;6.72;;;4.55;;
52468;SDS011;38381;53.688;10.776;2023-07-02T01:44:56;4.60;;;3.85;;
52468;SDS011;38381;53.688;10.776;2023-07-02T01:49:56;6.90;;;3.53;;
52468;SDS011;38381;53.688;10.776;2023-07-02T01:54:57;7.73;;;4.27;;
52468;SDS011;38381;53.688;10.776;2023-07-02T01:59:57;5.03;;;4.20;;
52468;SDS011;38381;53.688;10.776;2023-07-02T02:04:58;5.55;;;3.80;;
52468;SDS011;38381;53.688;10.776;2023-07-02T02:09:58;16.03;;;4.40;;
52468;SDS011;38381;53.688;10.776;2023-07-02T02:14:59;6.57;;;3.92;;
52468;SDS011;38381;53.688;10.776;2023-07-02T02:19:59;4.03;;;3.60;;
52468;SDS011;38381;53.688;10.776;2023-07-02T02:24:59;11.73;;;4.40;;
52468;SDS011;38381;53.688;10.776;2023-07-02T02:30:00;8.38;;;4.57;;
52468;SDS011;38381;53.688;10.776;2023-07-02T02:35:00;6.15;;;3.78;;
52468;SDS011;38381;53.688;10.776;2023-07-02T02:40:01;6.40;;;3.95;;
52468;SDS011;38381;53.688;10.776;2023-07-02T02:45:01;4.88;;;3.90;;
52468;SDS011;38381;53.688;10.776;2023-07-02T02:50:02;7.38;;;4.65;;
52468;SDS011;38381;53.688;10.776;2023-07-02T02:55:04;10.40;;;5.00;;
52468;SDS011;38381;53.688;10.776;2023-07-02T03:00:06;9.82;;;4.63;;
52468;SDS011;38381;53.688;10.776;2023-07-02T03:05:07;8.27;;;5.18;;
52468;SDS011;38381;53.688;10.776;2023-07-02T03:10:08;6.47;;;4.25;;
52468;SDS011;38381;53.688;10.776;2023-07-02T03:15:09;5.18;;;4.20;;
52468;SDS011;38381;53.688;10.776;2023-07-02T03:20:10;9.95;;;4.65;;
52468;SDS011;38381;53.688;10.776;2023-07-02T03:25:11;7.28;;;5.18;;
52468;SDS011;38381;53.688;10.776;2023-07-02T03:30:11;5.63;;;4.23;;
52468;SDS011;38381;53.688;10.776;2023-07-02T03:35:11;9.90;;;5.00;;
52468;SDS011;38381;53.688;10.776;2023-07-02T03:40:12;5.63;;;4.33;;
52468;SDS011;38381;53.688;10.776;2023-07-02T03:45:12;5.90;;;3.30;;
52468;SDS011;38381;53.688;10.776;2023-07-02T03:50:12;6.32;;;4.93;;
52468;SDS011;38381;53.688;10.776;2023-07-02T03:55:13;6.35;;;4.20;;
52468;SDS011;38381;53.688;10.776;2023-07-02T04:00:14;5.05;;;4.10;;
52468;SDS011;38381;53.688;10.776;2023-07-02T04:05:14;5.05;;;4.22;;
52468;SDS011;38381;53.688;10.776;2023-07-02T04:10:15;6.05;;;4.65;;
52468;SDS011;38381;53.688;10.776;2023-07-02T04:15:15;7.95;;;4.63;;
52468;SDS011;38381;53.688;10.776;2023-07-02T04:20:16;5.30;;;4.22;;
52468;SDS011;38381;53.688;10.776;2023-07-02T04:25:16;8.93;;;4.05;;
52468;SDS011;38381;53.688;10.776;2023-07-02T04:30:16;7.55;;;4.65;;
52468;SDS011;38381;53.688;10.776;2023-07-02T04:35:17;7.85;;;5.10;;
52468;SDS011;38381;53.688;10.776;2023-07-02T04:40:18;4.78;;;4.03;;
52468;SDS011;38381;53.688;10.776;2023-07-02T04:45:19;7.53;;;4.10;;
52468;SDS011;38381;53.688;10.776;2023-07-02T04:50:20;7.13;;;4.38;;
52468;SDS011;38381;53.688;10.776;2023-07-02T04:55:20;7.22;;;4.65;;
52468;SDS011;38381;53.688;10.776;2023-07-02T05:00:21;7.72;;;4.63;;
52468;SDS011;38381;53.688;10.776;2023-07-02T05:05:22;6.22;;;4.22;;
52468;SDS011;38381;53.688;10.776;2023-07-02T05:10:22;5.93;;;4.68;;
52468;SDS011;38381;53.688;10.776;2023-07-02T05:15:23;9.05;;;5.15;;
52468;SDS011;38381;53.688;10.776;2023-07-02T05:20:24;8.50;;;3.70;;
52468;SDS011;38381;53.688;10.776;2023-07-02T05:25:24;9.23;;;4.57;;
52468;SDS011;38381;53.688;10.776;2023-07-02T05:30:25;6.50;;;4.50;;
52468;SDS011;38381;53.688;10.776;2023-07-02T05:35:25;11.20;;;4.57;;
52468;SDS011;38381;53.688;10.776;2023-07-02T05:40:26;9.90;;;4.37;;
52468;SDS011;38381;53.688;10.776;2023-07-02T05:45:26;10.85;;;4.15;;
52468;SDS011;38381;53.688;10.776;2023-07-02T05:50:27;9.48;;;4.88;;
52468;SDS011;38381;53.688;10.776;2023-07-02T05:55:28;10.82;;;4.47;;
52468;SDS011;38381;53.688;10.776;2023-07-02T06:00:31;6.65;;;4.80;;
52468;SDS011;38381;53.688;10.776;2023-07-02T06:05:31;7.28;;;5.68;;
52468;SDS011;38381;53.688;10.776;2023-07-02T06:10:32;10.25;;;4.93;;
52468;SDS011;38381;53.688;10.776;2023-07-02T06:15:32;8.60;;;5.10;;
52468;SDS011;38381;53.688;10.776;2023-07-02T06:20:33;10.68;;;6.22;;
52468;SDS011;38381;53.688;10.776;2023-07-02T06:25:33;8.67;;;5.10;;
52468;SDS011;38381;53.688;10.776;2023-07-02T06:30:33;16.33;;;7.03;;
52468;SDS011;38381;53.688;10.776;2023-07-02T06:35:34;10.47;;;5.83;;
52468;SDS011;38381;53.688;10.776;2023-07-02T06:40:34;14.23;;;5.57;;
52468;SDS011;38381;53.688;10.776;2023-07-02T06:45:35;15.07;;;7.00;;
52468;SDS011;38381;53.688;10.776;2023-07-02T06:50:35;11.18;;;5.38;;
52468;SDS011;38381;53.688;10.776;2023-07-02T06:55:35;16.40;;;6.32;;
52468;SDS011;38381;53.688;10.776;2023-07-02T07:00:36;8.80;;;4.97;;
52468;SDS011;38381;53.688;10.776;2023-07-02T07:05:36;9.32;;;5.53;;
52468;SDS011;38381;53.688;10.776;2023-07-02T07:10:37;9.73;;;6.15;;
52468;SDS011;38381;53.688;10.776;2023-07-02T07:15:37;14.73;;;6.07;;
52468;SDS011;38381;53.688;10.776;2023-07-02T07:20:38;11.45;;;5.72;;
52468;SDS011;38381;53.688;10.776;2023-07-02T07:25:40;17.63;;;6.68;;
52468;SDS011;38381;53.688;10.776;2023-07-02T07:30:43;10.32;;;5.53;;
52468;SDS011;38381;53.688;10.776;2023-07-02T07:35:44;11.90;;;5.65;;
52468;SDS011;38381;53.688;10.776;2023-07-02T07:40:44;16.02;;;6.50;;
52468;SDS011;38381;53.688;10.776;2023-07-02T07:45:45;12.25;;;4.97;;
52468;SDS011;38381;53.688;10.776;2023-07-02T07:50:45;16.23;;;5.97;;
52468;SDS011;38381;53.688;10.776;2023-07-02T07:55:46;11.23;;;5.87;;
52468;SDS011;38381;53.688;10.776;2023-07-02T08:00:46;10.70;;;6.07;;
52468;SDS011;38381;53.688;10.776;2023-07-02T08:05:47;10.98;;;6.13;;
52468;SDS011;38381;53.688;10.776;2023-07-02T08:10:47;12.60;;;6.23;;
52468;SDS011;38381;53.688;10.776;2023-07-02T08:15:50;7.93;;;5.47;;
52468;SDS011;38381;53.688;10.776;2023-07-02T08:20:50;13.25;;;6.18;;
52468;SDS011;38381;53.688;10.776;2023-07-02T08:25:50;9.73;;;5.67;;
52468;SDS011;38381;53.688;10.776;2023-07-02T08:30:51;7.07;;;5.17;;
52468;SDS011;38381;53.688;10.776;2023-07-02T08:35:51;12.33;;;7.13;;
52468;SDS011;38381;53.688;10.776;2023-07-02T08:40:51;13.07;;;6.07;;
52468;SDS011;38381;53.688;10.776;2023-07-02T08:45:52;9.55;;;7.13;;
52468;SDS011;38381;53.688;10.776;2023-07-02T08:50:53;9.57;;;6.32;;
52468;SDS011;38381;53.688;10.776;2023-07-02T08:55:54;9.30;;;6.07;;
52468;SDS011;38381;53.688;10.776;2023-07-02T09:01:07;7.60;;;4.47;;
52468;SDS011;38381;53.688;10.776;2023-07-02T09:06:12;10.40;;;5.88;;
52468;SDS011;38381;53.688;10.776;2023-07-02T09:11:13;10.13;;;5.28;;
52468;SDS011;38381;53.688;10.776;2023-07-02T09:21:46;14.10;;;5.53;;
52468;SDS011;38381;53.688;10.776;2023-07-02T09:26:48;11.50;;;4.88;;
52468;SDS011;38381;53.688;10.776;2023-07-02T09:36:51;9.45;;;4.35;;
52468;SDS011;38381;53.688;10.776;2023-07-02T09:41:51;6.78;;;4.88;;
52468;SDS011;38381;53.688;10.776;2023-07-02T09:46:54;9.32;;;5.00;;
52468;SDS011;38381;53.688;10.776;2023-07-02T09:57:08;5.60;;;4.43;;
52468;SDS011;38381;53.688;10.776;2023-07-02T10:02:09;8.65;;;4.53;;
52468;SDS011;38381;53.688;10.776;2023-07-02T10:07:10;6.57;;;4.30;;
52468;SDS011;38381;53.688;10.776;2023-07-02T10:12:19;7.53;;;4.32;;
52468;SDS011;38381;53.688;10.776;2023-07-02T10:17:31;6.28;;;4.43;;
52468;SDS011;38381;53.688;10.776;2023-07-02T10:22:49;8.52;;;3.83;;
52468;SDS011;38381;53.688;10.776;2023-07-02T10:27:53;6.82;;;3.28;;
52468;SDS011;38381;53.688;10.776;2023-07-02T10:32:53;10.00;;;4.13;;
52468;SDS011;38381;53.688;10.776;2023-07-02T10:37:54;10.00;;;4.13;;
52468;SDS011;38381;53.688;10.776;2023-07-02T10:42:54;5.25;;;3.60;;
52468;SDS011;38381;53.688;10.776;2023-07-02T10:47:55;9.95;;;4.10;;
52468;SDS011;38381;53.688;10.776;2023-07-02T10:52:56;7.43;;;3.78;;
52468;SDS011;38381;53.688;10.776;2023-07-02T10:58:03;8.07;;;4.15;;
52468;SDS011;38381;53.688;10.776;2023-07-02T11:03:05;8.60;;;4.22;;
52468;SDS011;38381;53.688;10.776;2023-07-02T11:08:15;6.63;;;3.72;;
52468;SDS011;38381;53.688;10.776;2023-07-02T11:13:17;4.63;;;2.85;;
52468;SDS011;38381;53.688;10.776;2023-07-02T11:18:19;8.35;;;3.40;;
52468;SDS011;38381;53.688;10.776;2023-07-02T11:23:22;6.55;;;2.92;;
52468;SDS011;38381;53.688;10.776;2023-07-02T11:28:24;9.35;;;3.67;;
52468;SDS011;38381;53.688;10.776;2023-07-02T11:33:38;6.47;;;3.97;;
52468;SDS011;38381;53.688;10.776;2023-07-02T11:38:40;5.13;;;3.33;;
52468;SDS011;38381;53.688;10.776;2023-07-02T11:43:40;5.90;;;3.23;;
52468;SDS011;38381;53.688;10.776;2023-07-02T11:48:40;7.00;;;3.60;;
52468;SDS011;38381;53.688;10.776;2023-07-02T11:53:41;6.03;;;3.20;;
52468;SDS011;38381;53.688;10.776;2023-07-02T11:58:41;5.07;;;2.80;;
52468;SDS011;38381;53.688;10.776;2023-07-02T12:03:43;3.80;;;2.85;;
52468;SDS011;38381;53.688;10.776;2023-07-02T12:08:44;9.27;;;3.45;;
52468;SDS011;38381;53.688;10.776;2023-07-02T12:13:44;8.60;;;3.07;;
52468;SDS011;38381;53.688;10.776;2023-07-02T12:18:45;7.87;;;2.97;;
52468;SDS011;38381;53.688;10.776;2023-07-02T12:23:45;5.90;;;3.73;;
52468;SDS011;38381;53.688;10.776;2023-07-02T12:28:46;5.22;;;2.70;;
52468;SDS011;38381;53.688;10.776;2023-07-02T12:33:46;6.65;;;3.80;;
52468;SDS011;38381;53.688;10.776;2023-07-02T12:38:47;7.53;;;2.90;;
52468;SDS011;38381;53.688;10.776;2023-07-02T12:43:47;4.85;;;3.00;;
52468;SDS011;38381;53.688;10.776;2023-07-02T12:48:47;4.18;;;3.22;;
52468;SDS011;38381;53.688;10.776;2023-07-02T12:53:48;4.30;;;2.53;;
52468;SDS011;38381;53.688;10.776;2023-07-02T12:58:48;6.00;;;2.80;;
52468;SDS011;38381;53.688;10.776;2023-07-02T13:03:49;5.88;;;3.10;;
52468;SDS011;38381;53.688;10.776;2023-07-02T13:08:50;5.85;;;2.47;;
52468;SDS011;38381;53.688;10.776;2023-07-02T13:13:50;3.75;;;2.80;;
52468;SDS011;38381;53.688;10.776;2023-07-02T13:18:51;5.70;;;2.83;;
52468;SDS011;38381;53.688;10.776;2023-07-02T13:23:52;3.50;;;2.13;;
52468;SDS011;38381;53.688;10.776;2023-07-02T13:28:52;5.10;;;2.83;;
52468;SDS011;38381;53.688;10.776;2023-07-02T13:33:53;4.60;;;2.70;;
52468;SDS011;38381;53.688;10.776;2023-07-02T13:38:55;7.03;;;2.83;;
52468;SDS011;38381;53.688;10.776;2023-07-02T13:43:55;7.07;;;2.63;;
52468;SDS011;38381;53.688;10.776;2023-07-02T13:48:56;11.68;;;2.78;;
52468;SDS011;38381;53.688;10.776;2023-07-02T13:53:57;4.37;;;2.03;;
52468;SDS011;38381;53.688;10.776;2023-07-02T14:03:57;5.22;;;1.65;;
52468;SDS011;38381;53.688;10.776;2023-07-02T14:08:58;5.07;;;2.13;;
52468;SDS011;38381;53.688;10.776;2023-07-02T14:13:59;5.32;;;2.08;;
52468;SDS011;38381;53.688;10.776;2023-07-02T14:18:59;6.77;;;2.20;;
52468;SDS011;38381;53.688;10.776;2023-07-02T14:23:59;8.70;;;1.93;;
52468;SDS011;38381;53.688;10.776;2023-07-02T14:29:00;3.23;;;2.20;;
52468;SDS011;38381;53.688;10.776;2023-07-02T14:34:01;4.82;;;2.15;;
52468;SDS011;38381;53.688;10.776;2023-07-02T14:39:01;5.63;;;2.47;;
52468;SDS011;38381;53.688;10.776;2023-07-02T14:44:02;4.80;;;1.90;;
52468;SDS011;38381;53.688;10.776;2023-07-02T14:49:03;5.50;;;2.35;;
52468;SDS011;38381;53.688;10.776;2023-07-02T14:54:04;2.20;;;1.43;;
52468;SDS011;38381;53.688;10.776;2023-07-02T14:59:06;4.78;;;2.47;;
52468;SDS011;38381;53.688;10.776;2023-07-02T15:04:07;5.63;;;2.40;;
52468;SDS011;38381;53.688;10.776;2023-07-02T15:09:07;9.83;;;2.53;;
52468;SDS011;38381;53.688;10.776;2023-07-02T15:14:07;3.73;;;2.10;;
52468;SDS011;38381;53.688;10.776;2023-07-02T15:19:08;6.30;;;2.83;;
52468;SDS011;38381;53.688;10.776;2023-07-02T15:24:09;5.30;;;2.15;;
52468;SDS011;38381;53.688;10.776;2023-07-02T15:29:12;3.20;;;1.80;;
52468;SDS011;38381;53.688;10.776;2023-07-02T15:34:12;5.70;;;2.33;;
52468;SDS011;38381;53.688;10.776;2023-07-02T15:39:18;13.50;;;2.70;;
52468;SDS011;38381;53.688;10.776;2023-07-02T15:44:22;4.22;;;2.22;;
52468;SDS011;38381;53.688;10.776;2023-07-02T15:49:23;17.20;;;2.80;;
52468;SDS011;38381;53.688;10.776;2023-07-02T15:59:25;6.77;;;3.00;;
52468;SDS011;38381;53.688;10.776;2023-07-02T16:04:26;4.00;;;1.80;;
52468;SDS011;38381;53.688;10.776;2023-07-02T16:09:26;3.88;;;2.35;;
52468;SDS011;38381;53.688;10.776;2023-07-02T16:14:26;5.17;;;2.90;;
52468;SDS011;38381;53.688;10.776;2023-07-02T16:19:27;6.93;;;2.63;;
52468;SDS011;38381;53.688;10.776;2023-07-02T16:24:31;3.85;;;2.90;;
52468;SDS011;38381;53.688;10.776;2023-07-02T16:29:33;2.42;;;1.98;;
52468;SDS011;38381;53.688;10.776;2023-07-02T16:34:33;5.60;;;2.33;;
52468;SDS011;38381;53.688;10.776;2023-07-02T16:39:33;7.43;;;3.40;;
52468;SDS011;38381;53.688;10.776;2023-07-02T16:44:34;6.47;;;2.95;;
52468;SDS011;38381;53.688;10.776;2023-07-02T16:49:37;12.45;;;3.28;;
52468;SDS011;38381;53.688;10.776;2023-07-02T16:54:38;4.95;;;2.53;;
52468;SDS011;38381;53.688;10.776;2023-07-02T16:59:39;3.67;;;2.13;;
52468;SDS011;38381;53.688;10.776;2023-07-02T17:04:39;6.65;;;3.13;;
52468;SDS011;38381;53.688;10.776;2023-07-02T17:09:39;6.27;;;2.87;;
52468;SDS011;38381;53.688;10.776;2023-07-02T17:14:43;5.13;;;2.95;;
52468;SDS011;38381;53.688;10.776;2023-07-02T17:19:49;10.20;;;2.92;;
52468;SDS011;38381;53.688;10.776;2023-07-02T17:24:51;5.90;;;3.22;;
52468;SDS011;38381;53.688;10.776;2023-07-02T17:29:56;4.13;;;2.50;;
52468;SDS011;38381;53.688;10.776;2023-07-02T17:34:59;5.32;;;2.60;;
52468;SDS011;38381;53.688;10.776;2023-07-02T17:39:59;8.30;;;3.88;;
52468;SDS011;38381;53.688;10.776;2023-07-02T17:45:00;4.40;;;2.78;;
52468;SDS011;38381;53.688;10.776;2023-07-02T17:50:00;3.92;;;2.30;;
52468;SDS011;38381;53.688;10.776;2023-07-02T17:55:01;6.28;;;3.03;;
52468;SDS011;38381;53.688;10.776;2023-07-02T18:00:01;7.90;;;3.50;;
52468;SDS011;38381;53.688;10.776;2023-07-02T18:05:02;6.47;;;2.88;;
52468;SDS011;38381;53.688;10.776;2023-07-02T18:10:03;4.57;;;2.45;;
52468;SDS011;38381;53.688;10.776;2023-07-02T18:15:04;3.80;;;2.53;;
52468;SDS011;38381;53.688;10.776;2023-07-02T18:20:05;5.45;;;2.95;;
52468;SDS011;38381;53.688;10.776;2023-07-02T18:25:06;4.78;;;3.15;;
52468;SDS011;38381;53.688;10.776;2023-07-02T18:30:07;10.15;;;3.65;;
52468;SDS011;38381;53.688;10.776;2023-07-02T18:35:08;5.22;;;3.25;;
52468;SDS011;38381;53.688;10.776;2023-07-02T18:40:08;5.30;;;2.80;;
52468;SDS011;38381;53.688;10.776;2023-07-02T18:45:09;6.25;;;3.47;;
52468;SDS011;38381;53.688;10.776;2023-07-02T18:50:11;5.75;;;3.03;;
52468;SDS011;38381;53.688;10.776;2023-07-02T18:55:14;5.97;;;3.83;;
52468;SDS011;38381;53.688;10.776;2023-07-02T19:00:15;9.25;;;3.60;;
52468;SDS011;38381;53.688;10.776;2023-07-02T19:05:16;4.80;;;3.33;;
52468;SDS011;38381;53.688;10.776;2023-07-02T19:10:18;11.40;;;4.30;;
52468;SDS011;38381;53.688;10.776;2023-07-02T19:15:18;7.50;;;3.72;;
52468;SDS011;38381;53.688;10.776;2023-07-02T19:20:18;4.90;;;3.35;;
52468;SDS011;38381;53.688;10.776;2023-07-02T19:25:21;6.03;;;3.10;;
52468;SDS011;38381;53.688;10.776;2023-07-02T19:30:22;7.50;;;3.67;;
52468;SDS011;38381;53.688;10.776;2023-07-02T19:35:22;7.32;;;3.97;;
52468;SDS011;38381;53.688;10.776;2023-07-02T19:40:23;6.10;;;3.45;;
52468;SDS011;38381;53.688;10.776;2023-07-02T19:45:26;8.43;;;3.42;;
52468;SDS011;38381;53.688;10.776;2023-07-02T19:50:27;4.60;;;3.50;;
52468;SDS011;38381;53.688;10.776;2023-07-02T19:55:27;7.60;;;3.38;;
52468;SDS011;38381;53.688;10.776;2023-07-02T20:00:28;7.18;;;3.75;;
52468;SDS011;38381;53.688;10.776;2023-07-02T20:05:28;6.75;;;3.47;;
52468;SDS011;38381;53.688;10.776;2023-07-02T20:10:29;8.30;;;4.15;;
52468;SDS011;38381;53.688;10.776;2023-07-02T20:15:29;4.57;;;2.83;;
52468;SDS011;38381;53.688;10.776;2023-07-02T20:20:30;5.53;;;3.65;;
52468;SDS011;38381;53.688;10.776;2023-07-02T20:25:31;5.70;;;2.95;;
52468;SDS011;38381;53.688;10.776;2023-07-02T20:30:36;8.27;;;4.50;;
52468;SDS011;38381;53.688;10.776;2023-07-02T20:35:38;5.15;;;3.30;;
52468;SDS011;38381;53.688;10.776;2023-07-02T20:40:41;6.60;;;3.75;;
52468;SDS011;38381;53.688;10.776;2023-07-02T20:45:41;10.20;;;3.72;;
52468;SDS011;38381;53.688;10.776;2023-07-02T20:50:42;8.35;;;4.05;;
52468;SDS011;38381;53.688;10.776;2023-07-02T20:55:42;6.18;;;3.50;;
52468;SDS011;38381;53.688;10.776;2023-07-02T21:00:43;9.15;;;4.10;;
52468;SDS011;38381;53.688;10.776;2023-07-02T21:05:43;7.93;;;4.93;;
52468;SDS011;38381;53.688;10.776;2023-07-02T21:10:43;6.17;;;3.07;;
52468;SDS011;38381;53.688;10.776;2023-07-02T21:15:52;6.30;;;2.97;;
52468;SDS011;38381;53.688;10.776;2023-07-02T21:20:56;5.63;;;3.63;;
52468;SDS011;38381;53.688;10.776;2023-07-02T21:25:57;5.78;;;3.47;;
52468;SDS011;38381;53.688;10.776;2023-07-02T21:30:59;7.72;;;4.28;;
52468;SDS011;38381;53.688;10.776;2023-07-02T21:36:03;6.15;;;4.28;;
52468;SDS011;38381;53.688;10.776;2023-07-02T21:41:08;7.43;;;3.80;;
52468;SDS011;38381;53.688;10.776;2023-07-02T21:46:09;4.68;;;3.17;;
52468;SDS011;38381;53.688;10.776;2023-07-02T21:51:10;6.57;;;3.50;;
52468;SDS011;38381;53.688;10.776;2023-07-02T21:56:11;5.10;;;3.93;;
52468;SDS011;38381;53.688;10.776;2023-07-02T22:01:11;6.90;;;3.30;;
52468;SDS011;38381;53.688;10.776;2023-07-02T22:06:11;8.32;;;3.95;;
52468;SDS011;38381;53.688;10.776;2023-07-02T22:11:13;8.83;;;2.77;;
52468;SDS011;38381;53.688;10.776;2023-07-02T22:16:14;4.50;;;3.60;;
52468;SDS011;38381;53.688;10.776;2023-07-02T22:21:14;4.57;;;2.97;;
52468;SDS011;38381;53.688;10.776;2023-07-02T22:26:16;6.05;;;2.60;;
52468;SDS011;38381;53.688;10.776;2023-07-02T22:31:16;7.35;;;3.63;;
52468;SDS011;38381;53.688;10.776;2023-07-02T22:36:17;5.28;;;3.17;;
52468;SDS011;38381;53.688;10.776;2023-07-02T22:41:18;7.30;;;3.10;;
52468;SDS011;38381;53.688;10.776;2023-07-02T22:46:18;6.65;;;4.40;;
52468;SDS011;38381;53.688;10.776;2023-07-02T22:51:18;6.53;;;3.78;;
52468;SDS011;38381;53.688;10.776;2023-07-02T22:56:19;4.70;;;3.80;;
52468;SDS011;38381;53.688;10.776;2023-07-02T23:01:19;7.07;;;3.63;;
52468;SDS011;38381;53.688;10.776;2023-07-02T23:06:21;9.40;;;3.90;;
52468;SDS011;38381;53.688;10.776;2023-07-02T23:11:21;8.38;;;3.83;;
52468;SDS011;38381;53.688;10.776;2023-07-02T23:16:22;5.97;;;3.70;;
52468;SDS011;38381;53.688;10.776;2023-07-02T23:21:22;8.70;;;4.60;;
52468;SDS011;38381;53.688;10.776;2023-07-02T23:26:24;6.40;;;3.80;;
52468;SDS011;38381;53.688;10.776;2023-07-02T23:31:26;11.93;;;4.63;;
52468;SDS011;38381;53.688;10.776;2023-07-02T23:36:28;7.07;;;3.77;;
52468;SDS011;38381;53.688;10.776;2023-07-02T23:41:28;9.73;;;4.60;;
52468;SDS011;38381;53.688;10.776;2023-07-02T23:46:29;6.80;;;3.83;;
52468;SDS011;38381;53.688;10.776;2023-07-02T23:51:29;5.97;;;4.43;;
52468;SDS011;38381;53.688;10.776;2023-07-02T23:56:30;9.52;;;4.05;;
